Time;durP1;ratioP1;P1;durP2;ratioP2;P2;SDS_P1;SDS_P2;PMS_P1;PMS_P2;Temp;Humidity;BMP_temperature;BMP_pressure;BME280_temperature;BME280_humidity;BME280_pressure;Samples;Min_cycle;Max_cycle;Signal;HPM_P1;HPM_P2
2023/10/06 00:00:58;;;;;;;23.42;11.07;;;15.20;98.80;;;;;;4264316;27;20496;-59
2023/10/06 00:03:05;;;;;;;18.40;10.00;;;15.20;98.80;;;;;;4264289;27;20050;-61
2023/10/06 00:05:11;;;;;;;18.38;9.60;;;15.20;98.50;;;;;;4264670;27;20117;-58
2023/10/06 00:07:14;;;;;;;23.58;11.00;;;15.20;98.50;;;;;;4264545;27;20185;-56
2023/10/06 00:09:24;;;;;;;22.83;12.18;;;15.20;98.40;;;;;;4246012;28;20055;-56
2023/10/06 00:11:28;;;;;;;26.40;13.75;;;15.20;98.20;;;;;;4264526;27;20051;-56
2023/10/06 00:13:31;;;;;;;27.50;13.93;;;15.20;98.10;;;;;;4264041;27;20042;-56
2023/10/06 00:15:40;;;;;;;23.20;13.10;;;15.10;98.20;;;;;;4247136;28;20119;-56
2023/10/06 00:17:48;;;;;;;26.25;13.55;;;15.20;98.30;;;;;;4264176;27;20487;-56
2023/10/06 00:19:51;;;;;;;26.05;14.40;;;15.10;98.30;;;;;;4264475;27;20090;-58
2023/10/06 00:22:09;;;;;;;26.08;15.07;;;15.10;98.20;;;;;;4264814;27;20047;-56
2023/10/06 00:24:11;;;;;;;27.38;14.02;;;15.10;98.00;;;;;;4264529;27;20070;-57
2023/10/06 00:26:26;;;;;;;24.70;13.32;;;15.10;98.10;;;;;;4264414;27;20047;-56
2023/10/06 00:28:32;;;;;;;20.83;10.82;;;15.00;98.20;;;;;;4264412;27;20185;-56
2023/10/06 00:30:35;;;;;;;18.00;11.07;;;15.00;98.30;;;;;;4264584;27;20054;-56
2023/10/06 00:32:38;;;;;;;17.00;10.73;;;15.00;98.30;;;;;;4248035;28;20047;-61
2023/10/06 00:34:40;;;;;;;24.77;11.57;;;15.00;98.30;;;;;;4266514;27;20559;-58
2023/10/06 00:36:51;;;;;;;20.75;10.90;;;15.00;98.30;;;;;;4267952;27;20542;-57
2023/10/06 00:38:54;;;;;;;21.40;10.77;;;14.90;98.50;;;;;;4267762;27;20042;-56
2023/10/06 00:40:58;;;;;;;17.52;10.40;;;14.90;98.50;;;;;;4267744;27;20073;-57
2023/10/06 00:43:07;;;;;;;23.02;11.93;;;14.80;98.60;;;;;;4265820;27;20046;-56
2023/10/06 00:45:10;;;;;;;21.45;11.95;;;14.80;98.60;;;;;;4267294;27;20053;-56
2023/10/06 00:47:13;;;;;;;23.83;9.93;;;14.70;98.70;;;;;;4267229;27;20400;-57
2023/10/06 00:49:16;;;;;;;21.17;10.95;;;14.60;99.00;;;;;;4267162;27;20393;-59
2023/10/06 00:51:19;;;;;;;16.88;9.30;;;14.60;98.90;;;;;;4267007;27;20058;-58
2023/10/06 00:53:22;;;;;;;15.65;8.70;;;14.70;98.90;;;;;;4267229;27;20038;-57
2023/10/06 00:55:26;;;;;;;15.95;9.13;;;14.70;98.90;;;;;;4267194;27;20053;-58
2023/10/06 00:57:29;;;;;;;19.05;9.18;;;14.70;98.80;;;;;;4266788;27;20043;-59
2023/10/06 00:59:35;;;;;;;25.90;9.32;;;14.60;98.90;;;;;;4267233;27;20536;-56
2023/10/06 01:01:37;;;;;;;25.15;9.85;;;14.60;99.00;;;;;;4267448;27;20047;-56
2023/10/06 01:03:42;;;;;;;16.88;8.77;;;14.60;98.80;;;;;;4267195;27;20050;-59
2023/10/06 01:05:47;;;;;;;21.35;9.57;;;14.50;98.80;;;;;;4267189;27;20069;-57
2023/10/06 01:07:50;;;;;;;;;;;14.50;99.00;;;;;;4267419;27;20130;-56
2023/10/06 01:09:57;;;;;;;16.10;7.90;;;14.50;99.10;;;;;;4266826;27;19923;-56
2023/10/06 01:12:13;;;;;;;18.45;8.93;;;14.40;99.20;;;;;;4266549;27;20460;-56
2023/10/06 01:14:25;;;;;;;20.02;8.55;;;14.50;99.10;;;;;;4266944;27;20081;-56
2023/10/06 01:16:35;;;;;;;18.98;8.68;;;14.40;98.90;;;;;;4266677;27;20054;-56
2023/10/06 01:18:41;;;;;;;21.30;8.10;;;14.50;99.30;;;;;;4266650;27;20488;-56
2023/10/06 01:20:43;;;;;;;12.32;7.72;;;14.40;99.20;;;;;;4249177;27;20216;-57
2023/10/06 01:22:52;;;;;;;20.45;8.57;;;14.50;99.30;;;;;;4267779;27;20047;-58
2023/10/06 01:24:55;;;;;;;15.15;8.80;;;14.40;99.20;;;;;;4268054;27;20130;-56
2023/10/06 01:27:00;;;;;;;17.45;8.68;;;14.50;99.30;;;;;;4266953;27;20046;-55
2023/10/06 01:29:02;;;;;;;20.23;9.38;;;14.40;99.20;;;;;;4267035;27;20095;-56
2023/10/06 01:31:05;;;;;;;24.63;9.95;;;14.40;99.40;;;;;;4266515;27;20042;-57
2023/10/06 01:33:07;;;;;;;18.48;9.43;;;14.30;99.50;;;;;;4266453;27;20049;-56
2023/10/06 01:35:12;;;;;;;18.90;9.77;;;14.40;99.60;;;;;;4266561;27;20187;-56
2023/10/06 01:37:16;;;;;;;14.82;8.73;;;14.30;99.50;;;;;;4267000;27;20403;-60
2023/10/06 01:39:22;;;;;;;19.40;10.02;;;14.30;99.60;;;;;;4267399;27;20141;-64
2023/10/06 01:41:26;;;;;;;21.30;9.43;;;14.30;99.60;;;;;;4267380;27;20126;-57
2023/10/06 01:43:29;;;;;;;16.73;8.60;;;14.30;99.90;;;;;;4267270;27;20051;-56
2023/10/06 01:45:32;;;;;;;18.90;8.90;;;14.30;99.80;;;;;;4266791;27;20058;-57
2023/10/06 01:47:34;;;;;;;18.25;8.98;;;14.30;99.80;;;;;;4266341;27;20524;-56
2023/10/06 01:49:36;;;;;;;20.50;9.55;;;14.30;99.80;;;;;;4266320;27;20054;-55
2023/10/06 01:51:39;;;;;;;18.10;8.55;;;14.30;99.60;;;;;;4265994;27;20059;-55
2023/10/06 01:53:42;;;;;;;19.02;9.50;;;14.30;99.80;;;;;;4266471;27;20073;-55
2023/10/06 01:55:49;;;;;;;18.35;8.65;;;14.30;99.60;;;;;;4265954;27;20410;-58
2023/10/06 01:57:52;;;;;;;16.88;7.70;;;14.20;99.40;;;;;;4266319;27;20046;-57
2023/10/06 01:59:54;;;;;;;18.65;8.65;;;14.20;99.60;;;;;;4266296;27;20062;-58
2023/10/06 02:02:07;;;;;;;15.73;7.47;;;14.20;99.60;;;;;;4247862;27;20050;-58
2023/10/06 02:04:10;;;;;;;17.35;7.85;;;14.10;99.70;;;;;;4265912;27;20479;-59
2023/10/06 02:06:13;;;;;;;14.98;7.53;;;14.20;99.70;;;;;;4266913;27;20092;-58
2023/10/06 02:08:22;;;;;;;14.02;7.55;;;14.20;99.80;;;;;;4266780;27;20046;-59
2023/10/06 02:10:24;;;;;;;17.35;8.63;;;14.20;99.90;;;;;;4266138;27;20065;-59
2023/10/06 02:12:27;;;;;;;16.98;8.63;;;14.20;99.70;;;;;;4265963;27;20125;-58
2023/10/06 02:14:29;;;;;;;16.30;7.53;;;14.20;99.70;;;;;;4265955;27;20494;-58
2023/10/06 02:16:32;;;;;;;14.90;7.90;;;14.30;99.60;;;;;;4265741;27;20185;-58
2023/10/06 02:18:36;;;;;;;;;;;14.30;99.60;;;;;;4266328;27;20532;-60
2023/10/06 02:20:41;;;;;;;18.60;8.02;;;14.20;99.60;;;;;;4266152;27;19930;-62
2023/10/06 02:22:43;;;;;;;14.18;8.20;;;14.10;99.90;;;;;;4265595;27;20159;-59
2023/10/06 02:24:45;;;;;;;13.35;7.57;;;14.20;99.70;;;;;;4265619;27;20078;-58
2023/10/06 02:27:02;;;;;;;14.93;7.43;;;14.10;99.80;;;;;;4265688;27;20042;-58
2023/10/06 02:29:12;;;;;;;15.52;7.53;;;14.10;99.90;;;;;;4265717;27;20312;-58
2023/10/06 02:31:14;;;;;;;14.25;7.63;;;14.10;99.90;;;;;;4265677;27;20054;-58
2023/10/06 02:33:16;;;;;;;20.25;7.95;;;14.00;99.90;;;;;;4265447;27;20481;-58
2023/10/06 02:35:18;;;;;;;17.55;7.60;;;14.00;99.90;;;;;;4265280;27;20134;-58
2023/10/06 02:37:25;;;;;;;14.52;6.93;;;14.00;99.90;;;;;;4265622;27;20050;-58
2023/10/06 02:39:34;;;;;;;16.92;8.00;;;14.00;99.90;;;;;;4264991;27;20046;-59
2023/10/06 02:41:38;;;;;;;18.45;8.27;;;14.10;99.90;;;;;;4265544;27;20049;-58
2023/10/06 02:43:40;;;;;;;23.77;8.05;;;14.00;99.90;;;;;;4265443;27;20043;-58
2023/10/06 02:45:46;;;;;;;19.20;7.78;;;14.10;99.90;;;;;;4265347;27;20125;-58
2023/10/06 02:47:48;;;;;;;17.13;7.90;;;14.10;99.60;;;;;;4265002;27;20077;-58
2023/10/06 02:49:59;;;;;;;16.85;7.30;;;14.00;99.60;;;;;;4265019;27;20054;-58
2023/10/06 02:52:06;;;;;;;16.73;7.20;;;14.00;99.80;;;;;;4263885;27;20055;-58
2023/10/06 02:56:21;;;;;;;21.63;7.88;;;14.00;99.80;;;;;;4265230;27;20046;-57
2023/10/06 02:58:30;;;;;;;14.65;7.07;;;14.00;99.90;;;;;;4265450;27;20052;-58
2023/10/06 03:00:33;;;;;;;17.05;7.82;;;14.00;99.70;;;;;;4264934;27;20377;-58
2023/10/06 03:02:38;;;;;;;16.60;7.50;;;14.00;99.90;;;;;;4264795;27;20043;-58
2023/10/06 03:04:43;;;;;;;14.02;7.35;;;13.90;99.80;;;;;;4265122;27;20472;-57
2023/10/06 03:06:52;;;;;;;17.35;8.05;;;14.00;99.70;;;;;;4265505;27;20046;-58
2023/10/06 03:08:55;;;;;;;14.57;7.35;;;13.90;99.50;;;;;;4265068;27;20113;-58
2023/10/06 03:10:57;;;;;;;16.10;7.38;;;13.90;99.60;;;;;;4264949;27;20074;-58
2023/10/06 03:13:03;;;;;;;18.77;7.70;;;13.90;99.60;;;;;;4265240;27;20472;-58
2023/10/06 03:15:27;;;;;;;14.40;6.90;;;13.80;99.80;;;;;;4265030;27;20046;-58
2023/10/06 03:17:30;;;;;;;16.17;6.97;;;13.80;99.90;;;;;;4264636;27;20042;-58
2023/10/06 03:19:34;;;;;;;16.17;7.27;;;13.70;99.80;;;;;;4265163;27;20051;-58
2023/10/06 03:21:39;;;;;;;16.88;7.20;;;13.70;99.90;;;;;;4264809;27;20050;-58
2023/10/06 03:23:45;;;;;;;16.23;7.63;;;13.80;99.90;;;;;;4264778;27;20448;-57
2023/10/06 03:25:49;;;;;;;17.60;7.05;;;13.70;99.90;;;;;;4264957;27;20163;-58
2023/10/06 03:27:54;;;;;;;13.80;6.70;;;13.60;99.80;;;;;;4264950;27;20133;-58
2023/10/06 03:30:07;;;;;;;17.83;7.68;;;13.60;99.90;;;;;;4264857;27;20038;-58
2023/10/06 03:32:13;;;;;;;19.90;7.63;;;13.50;99.90;;;;;;4265012;27;20058;-58
2023/10/06 03:34:19;;;;;;;15.85;6.85;;;13.50;99.90;;;;;;4264835;27;20042;-58
2023/10/06 03:36:45;;;;;;;15.60;7.18;;;13.50;99.90;;;;;;4264395;27;20057;-58
2023/10/06 03:39:07;;;;;;;17.98;8.05;;;13.50;99.90;;;;;;4246425;28;20101;-59
2023/10/06 03:41:18;;;;;;;18.10;7.20;;;13.50;99.90;;;;;;4263703;27;20042;-57
2023/10/06 03:45:47;;;;;;;15.68;6.97;;;13.50;99.90;;;;;;4266361;27;20062;-62
2023/10/06 03:47:50;;;;;;;16.30;7.47;;;13.40;99.90;;;;;;4267311;27;20042;-59
2023/10/06 03:49:54;;;;;;;16.02;8.00;;;13.40;99.90;;;;;;4267125;27;20103;-58
2023/10/06 03:51:57;;;;;;;12.75;6.68;;;13.30;99.90;;;;;;4264530;27;20142;-63
2023/10/06 03:53:59;;;;;;;16.75;6.68;;;13.30;99.90;;;;;;4264972;27;20054;-59
2023/10/06 03:56:02;;;;;;;19.50;7.97;;;13.30;99.90;;;;;;4264926;27;20077;-58
2023/10/06 03:58:04;;;;;;;22.15;7.93;;;13.40;99.90;;;;;;4264582;27;20074;-58
2023/10/06 04:00:16;;;;;;;20.20;7.70;;;13.40;99.90;;;;;;4264756;27;20449;-59
2023/10/06 04:02:19;;;;;;;20.17;7.13;;;13.30;99.90;;;;;;4264541;27;20051;-58
2023/10/06 04:04:26;;;;;;;19.40;7.15;;;13.30;99.90;;;;;;4264422;27;20123;-57
2023/10/06 04:06:35;;;;;;;20.45;7.45;;;13.30;99.90;;;;;;4264179;27;20058;-62
2023/10/06 04:08:40;;;;;;;18.38;7.47;;;13.30;99.90;;;;;;4264527;27;20047;-58
2023/10/06 04:10:44;;;;;;;16.67;6.75;;;13.20;99.90;;;;;;4264211;27;20043;-58
2023/10/06 04:12:46;;;;;;;18.92;7.75;;;13.30;99.90;;;;;;4267368;27;20043;-57
2023/10/06 04:14:49;;;;;;;18.20;8.00;;;13.30;99.90;;;;;;4267746;27;20043;-58
2023/10/06 04:16:53;;;;;;;17.02;7.43;;;13.30;99.90;;;;;;4267624;27;20091;-58
2023/10/06 04:18:55;;;;;;;14.10;7.40;;;13.20;99.90;;;;;;4267770;27;20046;-58
2023/10/06 04:20:57;;;;;;;15.65;7.72;;;13.30;99.90;;;;;;4267383;27;20267;-58
2023/10/06 04:23:02;;;;;;;16.08;7.18;;;13.30;99.90;;;;;;4267763;27;20066;-58
2023/10/06 04:25:10;;;;;;;;;;;13.30;99.90;;;;;;4268474;27;20507;-58
2023/10/06 04:27:13;;;;;;;15.32;7.43;;;13.20;99.90;;;;;;4249213;27;20429;-58
2023/10/06 04:29:15;;;;;;;17.48;7.85;;;13.20;99.90;;;;;;4267635;27;20496;-58
2023/10/06 04:31:17;;;;;;;18.85;7.18;;;13.20;99.90;;;;;;4267573;27;20399;-58
2023/10/06 04:33:20;;;;;;;19.17;7.57;;;13.20;99.90;;;;;;4267383;27;20506;-58
2023/10/06 04:35:24;;;;;;;23.02;7.13;;;13.20;99.90;;;;;;4267592;27;20125;-58
2023/10/06 04:37:27;;;;;;;19.33;8.32;;;13.20;99.90;;;;;;4267757;27;20126;-58
2023/10/06 04:39:29;;;;;;;15.38;7.82;;;13.20;99.90;;;;;;4267624;27;20112;-58
2023/10/06 04:41:33;;;;;;;23.08;7.57;;;13.20;99.90;;;;;;4267476;27;20130;-59
2023/10/06 04:43:36;;;;;;;14.93;7.10;;;13.30;99.90;;;;;;4267246;27;20049;-59
2023/10/06 04:45:38;;;;;;;14.63;6.80;;;13.20;99.90;;;;;;4267269;27;20381;-59
2023/10/06 04:47:41;;;;;;;17.63;7.45;;;13.20;99.90;;;;;;4267200;27;20042;-59
2023/10/06 04:49:43;;;;;;;19.38;7.78;;;13.20;99.90;;;;;;4266929;27;20054;-58
2023/10/06 04:51:45;;;;;;;20.70;6.72;;;13.30;99.90;;;;;;4267087;27;20060;-58
2023/10/06 04:53:50;;;;;;;;;;;13.30;99.90;;;;;;4268001;27;20042;-59
2023/10/06 04:55:52;;;;;;;15.90;7.20;;;13.20;99.90;;;;;;4249019;27;20404;-58
2023/10/06 04:57:56;;;;;;;21.95;7.68;;;13.10;99.90;;;;;;4267028;27;20049;-58
2023/10/06 04:59:58;;;;;;;14.38;6.75;;;13.10;99.90;;;;;;4267045;27;20043;-61
2023/10/06 05:02:02;;;;;;;18.23;8.05;;;13.10;99.90;;;;;;4267284;27;20091;-58
2023/10/06 05:04:08;;;;;;;15.82;7.25;;;13.10;99.90;;;;;;4266541;27;20051;-58
2023/10/06 05:06:15;;;;;;;17.77;8.38;;;13.10;99.90;;;;;;4266938;27;20103;-58
2023/10/06 05:08:19;;;;;;;16.70;7.70;;;13.10;99.90;;;;;;4267147;27;20081;-58
2023/10/06 05:10:21;;;;;;;18.38;7.82;;;13.00;99.90;;;;;;4266965;27;20115;-59
2023/10/06 05:12:24;;;;;;;23.33;8.63;;;13.00;99.90;;;;;;4267086;27;20107;-58
2023/10/06 05:14:28;;;;;;;17.83;7.10;;;13.10;99.90;;;;;;4267145;27;20056;-58
2023/10/06 05:16:29;;;;;;;21.70;7.55;;;13.20;99.90;;;;;;4267010;27;20110;-58
2023/10/06 05:18:35;;;;;;;23.30;8.00;;;13.20;99.90;;;;;;4266597;27;20065;-58
2023/10/06 05:20:43;;;;;;;22.02;7.85;;;13.20;99.90;;;;;;4268381;27;20050;-59
2023/10/06 05:22:48;;;;;;;34.42;7.72;;;13.20;99.90;;;;;;4267652;27;20074;-57
2023/10/06 05:24:51;;;;;;;27.75;7.97;;;13.20;99.90;;;;;;4267017;27;20080;-59
2023/10/06 05:26:53;;;;;;;39.08;8.70;;;13.20;99.90;;;;;;4267210;27;20043;-57
2023/10/06 05:28:55;;;;;;;27.55;8.75;;;13.20;99.90;;;;;;4267061;27;20055;-57
2023/10/06 05:30:58;;;;;;;38.47;8.63;;;13.20;99.90;;;;;;4266892;27;20118;-58
2023/10/06 05:33:00;;;;;;;35.83;8.75;;;13.20;99.90;;;;;;4266443;27;20054;-58
2023/10/06 05:35:04;;;;;;;25.27;8.43;;;13.20;99.90;;;;;;4266733;27;20049;-58
2023/10/06 05:37:08;;;;;;;30.58;8.68;;;13.20;99.90;;;;;;4266692;27;20043;-57
2023/10/06 05:39:11;;;;;;;32.15;9.27;;;13.10;99.90;;;;;;4248362;27;20051;-58
2023/10/06 05:41:15;;;;;;;27.85;10.23;;;13.10;99.90;;;;;;4265420;27;20122;-58
2023/10/06 05:43:17;;;;;;;33.83;9.10;;;13.10;99.90;;;;;;4266533;27;20473;-58
2023/10/06 05:45:19;;;;;;;50.28;10.60;;;13.10;99.90;;;;;;4266630;27;20121;-58
2023/10/06 05:47:23;;;;;;;34.72;9.90;;;13.10;99.90;;;;;;4266084;27;20043;-57
2023/10/06 05:49:25;;;;;;;31.15;9.70;;;13.20;99.90;;;;;;4266633;27;20066;-57
2023/10/06 05:51:28;;;;;;;54.65;11.57;;;13.10;99.90;;;;;;4266141;27;20086;-58
2023/10/06 05:53:38;;;;;;;40.50;11.25;;;13.10;99.90;;;;;;4266876;27;20046;-58
2023/10/06 05:55:41;;;;;;;38.85;9.93;;;13.10;99.90;;;;;;4266393;27;20055;-58
2023/10/06 05:57:51;;;;;;;44.53;9.48;;;13.20;99.90;;;;;;4266334;27;20503;-58
2023/10/06 05:59:53;;;;;;;41.60;10.10;;;13.20;99.90;;;;;;4266392;27;20095;-57
2023/10/06 06:02:00;;;;;;;47.05;11.13;;;13.20;99.90;;;;;;4266080;27;20039;-59
2023/10/06 06:04:09;;;;;;;35.22;9.52;;;13.20;99.90;;;;;;4266643;27;20049;-58
2023/10/06 06:06:14;;;;;;;30.40;9.32;;;13.30;99.90;;;;;;4266361;27;20042;-58
2023/10/06 06:08:16;;;;;;;27.67;9.15;;;13.30;99.90;;;;;;4266336;27;20098;-58
2023/10/06 06:10:19;;;;;;;29.65;10.07;;;13.20;99.90;;;;;;4266511;27;20042;-58
2023/10/06 06:12:21;;;;;;;36.00;9.40;;;13.20;99.90;;;;;;4266291;27;20312;-58
2023/10/06 06:14:23;;;;;;;43.03;10.63;;;13.20;99.90;;;;;;4266263;27;20042;-58
2023/10/06 06:16:26;;;;;;;30.00;9.73;;;13.20;99.90;;;;;;4247384;27;20039;-58
2023/10/06 06:18:28;;;;;;;35.35;9.20;;;13.10;99.90;;;;;;4266126;27;20042;-58
2023/10/06 06:20:32;;;;;;;21.33;8.48;;;13.10;99.90;;;;;;4266303;27;20046;-57
2023/10/06 06:22:36;;;;;;;29.02;9.18;;;13.20;99.90;;;;;;4266021;27;20039;-59
2023/10/06 06:24:38;;;;;;;;;;;13.20;99.90;;;;;;4266677;27;20051;-58
2023/10/06 06:26:41;;;;;;;25.88;9.40;;;13.20;99.90;;;;;;4266079;27;19919;-58
2023/10/06 06:28:43;;;;;;;32.80;9.40;;;13.10;99.90;;;;;;4265833;27;20521;-58
2023/10/06 06:30:47;;;;;;;36.65;9.63;;;13.20;99.90;;;;;;4265204;27;20043;-58
2023/10/06 06:32:52;;;;;;;33.67;11.02;;;13.20;99.90;;;;;;4246983;27;20047;-58
2023/10/06 06:35:13;;;;;;;27.95;9.18;;;13.20;99.90;;;;;;4264293;27;20039;-58
2023/10/06 06:37:33;;;;;;;33.17;10.35;;;13.10;99.90;;;;;;4264714;27;20035;-58
2023/10/06 06:39:56;;;;;;;31.67;10.43;;;13.10;99.90;;;;;;4251682;27;20134;-59
2023/10/06 06:41:58;;;;;;;34.95;10.40;;;13.10;99.90;;;;;;4267322;27;20434;-58
2023/10/06 06:44:01;;;;;;;25.98;10.07;;;13.10;99.90;;;;;;4266118;27;20043;-59
2023/10/06 06:46:03;;;;;;;27.10;9.50;;;13.20;99.90;;;;;;4268293;27;20047;-62
2023/10/06 06:48:09;;;;;;;28.23;9.23;;;13.30;99.90;;;;;;4269598;27;20126;-59
2023/10/06 06:50:17;;;;;;;25.67;9.68;;;13.30;99.90;;;;;;4267879;27;20129;-59
2023/10/06 06:52:22;;;;;;;25.05;9.65;;;13.40;99.90;;;;;;4268610;27;20079;-66
2023/10/06 06:54:25;;;;;;;;;;;13.40;99.90;;;;;;4271421;27;20053;-58
2023/10/06 06:56:28;;;;;;;33.55;9.48;;;13.40;99.90;;;;;;4268762;27;19919;-61
2023/10/06 06:58:32;;;;;;;23.17;8.63;;;13.40;99.90;;;;;;4268146;27;20046;-63
2023/10/06 07:00:35;;;;;;;20.63;9.20;;;13.50;99.90;;;;;;4270209;27;21029;-58
2023/10/06 07:02:38;;;;;;;22.27;8.57;;;13.60;99.90;;;;;;4269397;27;20073;-62
2023/10/06 07:04:40;;;;;;;30.20;10.48;;;13.70;99.90;;;;;;4268687;27;20077;-60
2023/10/06 07:06:42;;;;;;;32.60;10.60;;;13.70;99.90;;;;;;4267742;27;20401;-62
2023/10/06 07:08:45;;;;;;;20.30;8.63;;;13.80;99.90;;;;;;4268388;27;20046;-58
2023/10/06 07:10:52;;;;;;;24.98;8.60;;;13.90;99.90;;;;;;4268415;27;20117;-57
2023/10/06 07:12:58;;;;;;;24.63;9.63;;;13.90;99.90;;;;;;4268498;27;20042;-60
2023/10/06 07:15:01;;;;;;;23.25;9.38;;;14.00;99.90;;;;;;4268320;27;20042;-62
2023/10/06 07:17:03;;;;;;;17.55;7.93;;;14.10;99.90;;;;;;4268867;27;20043;-59
2023/10/06 07:19:06;;;;;;;22.13;10.13;;;14.10;99.90;;;;;;4232935;28;20055;-56
2023/10/06 07:21:09;;;;;;;34.08;10.38;;;14.30;99.90;;;;;;4268789;27;20047;-62
2023/10/06 07:23:11;;;;;;;33.13;10.02;;;14.40;99.90;;;;;;4267731;27;20141;-56
2023/10/06 07:25:15;;;;;;;29.38;9.63;;;14.50;99.80;;;;;;4268314;27;20046;-56
2023/10/06 07:27:19;;;;;;;23.25;9.57;;;14.50;99.70;;;;;;4265476;27;20118;-59
2023/10/06 07:29:22;;;;;;;26.00;9.68;;;14.60;99.90;;;;;;4247346;27;20047;-56
2023/10/06 07:31:24;;;;;;;32.60;9.43;;;14.60;99.90;;;;;;4265286;27;20042;-56
2023/10/06 07:33:28;;;;;;;29.95;9.32;;;14.60;99.90;;;;;;4265168;27;20103;-57
2023/10/06 07:35:40;;;;;;;37.72;10.10;;;14.70;99.80;;;;;;4247028;27;20039;-58
2023/10/06 07:37:43;;;;;;;24.98;9.55;;;14.80;99.80;;;;;;4265205;27;20074;-57
2023/10/06 07:39:46;;;;;;;24.90;8.73;;;14.90;99.70;;;;;;4265187;27;20042;-56
2023/10/06 07:41:49;;;;;;;25.58;10.07;;;15.00;99.60;;;;;;4265041;27;20445;-56
2023/10/06 07:43:52;;;;;;;18.63;8.65;;;15.20;99.30;;;;;;4265109;27;20050;-57
2023/10/06 07:45:55;;;;;;;23.07;9.47;;;15.30;99.20;;;;;;4264941;27;20053;-56
2023/10/06 07:47:58;;;;;;;23.15;9.15;;;15.30;99.30;;;;;;4268785;27;20043;-57
2023/10/06 07:50:00;;;;;;;23.77;10.23;;;15.40;99.10;;;;;;4268593;27;20437;-56
2023/10/06 07:52:04;;;;;;;24.90;10.20;;;15.30;98.90;;;;;;4268164;27;20055;-56
2023/10/06 07:54:08;;;;;;;30.40;10.20;;;15.40;98.90;;;;;;4250137;27;20046;-56
2023/10/06 07:56:11;;;;;;;35.33;11.50;;;15.30;98.60;;;;;;4268497;27;20050;-56
2023/10/06 07:58:15;;;;;;;28.40;10.65;;;15.30;98.80;;;;;;4268242;27;20070;-56
2023/10/06 08:00:38;;;;;;;21.58;8.88;;;15.30;98.70;;;;;;4268389;27;20475;-56
2023/10/06 08:02:41;;;;;;;24.63;10.45;;;15.40;98.70;;;;;;4268231;27;20050;-55
2023/10/06 08:04:43;;;;;;;26.17;8.82;;;15.50;98.70;;;;;;4268094;27;20065;-56
2023/10/06 08:06:46;;;;;;;32.95;10.30;;;15.60;98.50;;;;;;4268517;27;20510;-56
2023/10/06 08:08:48;;;;;;;31.50;11.10;;;15.70;98.50;;;;;;4268060;27;20095;-56
2023/10/06 08:10:53;;;;;;;24.90;9.93;;;15.70;98.40;;;;;;4268237;27;20066;-55
2023/10/06 08:13:00;;;;;;;30.52;10.68;;;15.70;98.50;;;;;;4267767;27;20050;-56
2023/10/06 08:15:09;;;;;;;24.08;10.13;;;15.80;98.40;;;;;;4268937;27;20473;-58
2023/10/06 08:17:12;;;;;;;19.63;9.95;;;15.90;98.30;;;;;;4270190;27;20412;-60
2023/10/06 08:19:15;;;;;;;23.52;9.65;;;15.90;97.70;;;;;;4268427;27;20047;-58
2023/10/06 08:21:17;;;;;;;21.63;8.60;;;16.00;97.90;;;;;;4268301;27;20103;-58
2023/10/06 08:23:20;;;;;;;28.13;10.32;;;16.00;97.90;;;;;;4268113;27;20047;-55
2023/10/06 08:25:24;;;;;;;23.35;8.52;;;16.00;97.50;;;;;;4267767;27;20105;-55
2023/10/06 08:27:27;;;;;;;22.13;8.85;;;16.10;97.60;;;;;;4267617;27;20099;-59
2023/10/06 08:29:32;;;;;;;25.23;9.23;;;16.20;97.40;;;;;;4267017;27;20042;-60
2023/10/06 08:31:34;;;;;;;25.90;10.98;;;16.20;97.50;;;;;;4267650;27;20043;-57
2023/10/06 08:33:40;;;;;;;27.55;11.02;;;16.30;97.50;;;;;;4267665;27;20433;-59
2023/10/06 08:35:44;;;;;;;31.60;10.82;;;16.30;97.50;;;;;;4268143;27;20149;-59
2023/10/06 08:37:47;;;;;;;30.27;11.43;;;16.40;97.40;;;;;;4267935;27;20049;-58
2023/10/06 08:39:49;;;;;;;32.13;11.40;;;16.40;97.50;;;;;;4267679;27;20046;-59
2023/10/06 08:41:55;;;;;;;28.70;10.18;;;16.50;97.30;;;;;;4267518;27;20057;-59
2023/10/06 08:44:02;;;;;;;18.45;8.65;;;16.50;97.30;;;;;;4267566;27;20078;-58
2023/10/06 08:46:05;;;;;;;23.27;8.93;;;16.60;97.20;;;;;;4267480;27;20458;-62
2023/10/06 08:48:12;;;;;;;30.42;10.95;;;16.70;97.10;;;;;;4267440;27;20404;-58
2023/10/06 08:50:22;;;;;;;23.40;9.50;;;16.70;97.10;;;;;;4267137;27;20126;-59
2023/10/06 08:52:25;;;;;;;32.25;10.68;;;16.80;96.90;;;;;;4267067;27;20051;-59
2023/10/06 08:54:29;;;;;;;25.33;10.75;;;16.90;97.00;;;;;;4267153;27;20084;-59
2023/10/06 08:56:34;;;;;;;26.08;9.57;;;16.90;96.40;;;;;;4266780;27;20058;-58
2023/10/06 08:58:36;;;;;;;30.52;9.63;;;16.90;96.10;;;;;;4266718;27;20043;-59
2023/10/06 09:00:38;;;;;;;20.65;8.68;;;16.90;96.00;;;;;;4267468;27;20069;-59
2023/10/06 09:02:41;;;;;;;24.70;9.18;;;17.00;95.80;;;;;;4267368;27;20043;-59
2023/10/06 09:04:43;;;;;;;22.35;10.27;;;17.00;95.70;;;;;;4267288;27;20047;-57
2023/10/06 09:07:12;;;;;;;24.50;10.05;;;17.10;95.70;;;;;;4267230;27;20043;-56
2023/10/06 09:09:26;;;;;;;27.50;10.02;;;17.20;95.50;;;;;;4267025;27;20049;-59
2023/10/06 09:11:38;;;;;;;24.55;10.25;;;17.20;95.30;;;;;;4266545;27;20043;-57
2023/10/06 09:13:41;;;;;;;22.15;9.38;;;17.20;95.00;;;;;;4266782;27;20071;-56
2023/10/06 09:15:55;;;;;;;26.77;10.15;;;17.30;95.20;;;;;;4266914;27;20047;-56
2023/10/06 09:17:58;;;;;;;22.30;9.77;;;17.30;94.80;;;;;;4266725;27;20047;-57
2023/10/06 09:20:00;;;;;;;19.52;9.07;;;17.30;94.90;;;;;;4266997;27;20042;-57
2023/10/06 09:22:06;;;;;;;17.95;8.32;;;17.40;95.00;;;;;;4268563;27;20054;-58
2023/10/06 09:24:20;;;;;;;25.08;9.55;;;17.40;95.00;;;;;;4268140;27;20043;-58
2023/10/06 09:26:31;;;;;;;21.98;9.98;;;17.40;95.00;;;;;;4268020;27;20073;-61
2023/10/06 09:28:33;;;;;;;21.92;9.55;;;17.50;94.80;;;;;;4267164;27;20051;-63
2023/10/06 09:30:50;;;;;;;23.50;7.93;;;17.50;94.30;;;;;;4267107;27;20042;-62
2023/10/06 09:33:01;;;;;;;21.65;9.57;;;17.60;94.50;;;;;;4266480;27;20103;-59
2023/10/06 09:35:20;;;;;;;17.55;8.95;;;17.60;94.00;;;;;;4266875;27;20049;-59
2023/10/06 09:37:22;;;;;;;27.55;10.07;;;17.60;94.10;;;;;;4266649;27;20531;-59
2023/10/06 09:39:32;;;;;;;23.88;9.52;;;17.60;93.90;;;;;;4266324;27;20061;-56
2023/10/06 09:41:36;;;;;;;24.08;9.63;;;17.70;93.50;;;;;;4266579;27;20141;-56
2023/10/06 09:43:39;;;;;;;23.00;8.90;;;17.70;93.40;;;;;;4266445;27;20070;-56
2023/10/06 09:45:43;;;;;;;19.55;7.97;;;17.70;93.50;;;;;;4266361;27;20042;-55
2023/10/06 09:47:49;;;;;;;23.30;8.82;;;17.90;93.60;;;;;;4267030;27;20051;-57
2023/10/06 09:49:52;;;;;;;25.67;9.10;;;17.90;93.60;;;;;;4266835;27;20100;-56
2023/10/06 09:52:01;;;;;;;24.33;9.75;;;17.90;92.70;;;;;;4266636;27;20502;-55
2023/10/06 09:54:05;;;;;;;19.05;8.65;;;17.90;92.60;;;;;;4266052;27;20107;-56
2023/10/06 09:56:11;;;;;;;18.45;8.55;;;17.90;92.50;;;;;;4266266;27;20377;-60
2023/10/06 09:58:13;;;;;;;22.95;9.43;;;18.00;92.80;;;;;;4266293;27;20960;-56
2023/10/06 10:00:17;;;;;;;21.58;8.93;;;18.00;92.20;;;;;;4266382;27;20427;-56
2023/10/06 10:02:21;;;;;;;23.60;9.57;;;18.00;92.30;;;;;;4266335;27;20535;-57
2023/10/06 10:04:25;;;;;;;19.58;8.68;;;18.10;92.40;;;;;;4266203;27;20495;-56
2023/10/06 10:06:28;;;;;;;21.75;8.93;;;18.10;92.10;;;;;;4266415;27;20043;-56
2023/10/06 10:08:32;;;;;;;19.23;8.13;;;18.20;92.20;;;;;;4265481;27;20093;-56
2023/10/06 10:10:38;;;;;;;16.80;8.32;;;18.20;92.20;;;;;;4265930;27;20130;-57
2023/10/06 10:13:08;;;;;;;20.27;8.13;;;18.20;92.00;;;;;;4267802;27;20093;-71
2023/10/06 10:15:21;;;;;;;21.17;8.68;;;18.30;91.90;;;;;;4266517;27;20087;-58
2023/10/06 10:17:31;;;;;;;18.60;8.73;;;18.30;91.60;;;;;;4265944;27;20042;-58
2023/10/06 10:19:35;;;;;;;19.13;7.97;;;18.30;91.80;;;;;;4265786;27;20042;-58
2023/10/06 10:21:38;;;;;;;18.13;8.10;;;18.40;91.80;;;;;;4266083;27;20094;-56
2023/10/06 10:23:43;;;;;;;24.45;7.93;;;18.40;91.60;;;;;;4265471;27;20103;-58
2023/10/06 10:25:45;;;;;;;22.67;7.78;;;18.40;91.20;;;;;;4266105;27;20454;-56
2023/10/06 10:28:13;;;;;;;19.35;8.73;;;18.40;91.50;;;;;;4265955;27;20420;-56
2023/10/06 10:30:36;;;;;;;17.75;8.10;;;18.50;91.80;;;;;;4265831;27;20393;-57
2023/10/06 10:32:41;;;;;;;17.52;8.05;;;18.60;91.90;;;;;;4265604;27;20091;-59
2023/10/06 10:35:12;;;;;;;16.75;7.72;;;18.60;92.10;;;;;;4247333;27;20062;-59
2023/10/06 10:37:16;;;;;;;16.77;7.93;;;18.70;91.70;;;;;;4265347;27;20071;-58
2023/10/06 10:39:19;;;;;;;20.35;7.85;;;18.60;91.40;;;;;;4265461;27;20054;-58
2023/10/06 10:41:27;;;;;;;18.35;8.45;;;18.60;91.50;;;;;;4265530;27;20048;-59
2023/10/06 10:43:30;;;;;;;17.27;7.65;;;18.70;91.40;;;;;;4265734;27;20054;-58
2023/10/06 10:45:38;;;;;;;16.88;8.27;;;18.70;91.00;;;;;;4265380;27;20043;-58
2023/10/06 10:47:41;;;;;;;22.45;7.72;;;18.70;91.10;;;;;;4265691;27;20094;-58